sensor_id;sensor_type;location;lat;lon;timestamp;P1;durP1;ratioP1;P2;durP2;ratioP2
18340;SDS011;9296;48.084;16.352;2024-01-25T00:00:22;9.82;;;2.30;;
18340;SDS011;9296;48.084;16.352;2024-01-25T00:02:53;9.55;;;2.42;;
18340;SDS011;9296;48.084;16.352;2024-01-25T00:39:24;9.88;;;2.08;;
18340;SDS011;9296;48.084;16.352;2024-01-25T00:41:51;8.23;;;2.00;;
18340;SDS011;9296;48.084;16.352;2024-01-25T00:47:05;13.85;;;2.38;;
18340;SDS011;9296;48.084;16.352;2024-01-25T00:49:32;7.82;;;1.77;;
18340;SDS011;9296;48.084;16.352;2024-01-25T00:52:00;7.43;;;1.75;;
18340;SDS011;9296;48.084;16.352;2024-01-25T01:07:55;9.38;;;1.60;;
18340;SDS011;9296;48.084;16.352;2024-01-25T01:10:26;12.40;;;1.95;;
18340;SDS011;9296;48.084;16.352;2024-01-25T01:12:58;7.75;;;1.85;;
18340;SDS011;9296;48.084;16.352;2024-01-25T01:19:01;9.13;;;2.15;;
18340;SDS011;9296;48.084;16.352;2024-01-25T01:24:35;12.77;;;2.53;;
18340;SDS011;9296;48.084;16.352;2024-01-25T01:29:47;9.82;;;2.20;;
18340;SDS011;9296;48.084;16.352;2024-01-25T01:32:15;8.45;;;2.03;;
18340;SDS011;9296;48.084;16.352;2024-01-25T01:34:42;7.85;;;1.98;;
18340;SDS011;9296;48.084;16.352;2024-01-25T01:37:17;9.07;;;2.90;;
18340;SDS011;9296;48.084;16.352;2024-01-25T02:23:31;12.10;;;2.20;;
18340;SDS011;9296;48.084;16.352;2024-01-25T02:26:01;8.55;;;1.85;;
18340;SDS011;9296;48.084;16.352;2024-01-25T02:28:30;10.00;;;2.15;;
18340;SDS011;9296;48.084;16.352;2024-01-25T02:31:00;10.23;;;2.00;;
18340;SDS011;9296;48.084;16.352;2024-01-25T02:33:37;10.98;;;1.92;;
18340;SDS011;9296;48.084;16.352;2024-01-25T02:44:51;9.45;;;1.60;;
18340;SDS011;9296;48.084;16.352;2024-01-25T02:50:23;8.90;;;2.42;;
18340;SDS011;9296;48.084;16.352;2024-01-25T02:53:04;9.40;;;2.08;;
18340;SDS011;9296;48.084;16.352;2024-01-25T02:55:33;10.60;;;2.20;;
18340;SDS011;9296;48.084;16.352;2024-01-25T02:58:03;11.98;;;2.70;;
18340;SDS011;9296;48.084;16.352;2024-01-25T03:00:38;11.13;;;2.13;;
18340;SDS011;9296;48.084;16.352;2024-01-25T03:03:16;11.32;;;2.50;;
18340;SDS011;9296;48.084;16.352;2024-01-25T03:06:07;13.35;;;2.33;;
18340;SDS011;9296;48.084;16.352;2024-01-25T03:08:47;10.27;;;2.03;;
18340;SDS011;9296;48.084;16.352;2024-01-25T03:11:14;9.85;;;2.17;;
18340;SDS011;9296;48.084;16.352;2024-01-25T03:16:35;9.68;;;2.13;;
18340;SDS011;9296;48.084;16.352;2024-01-25T03:21:51;13.15;;;2.80;;
18340;SDS011;9296;48.084;16.352;2024-01-25T03:24:21;9.10;;;1.98;;
18340;SDS011;9296;48.084;16.352;2024-01-25T03:26:49;9.35;;;2.15;;
18340;SDS011;9296;48.084;16.352;2024-01-25T03:29:16;9.00;;;2.08;;
18340;SDS011;9296;48.084;16.352;2024-01-25T03:32:04;11.75;;;2.40;;
18340;SDS011;9296;48.084;16.352;2024-01-25T03:34:32;7.18;;;1.90;;
18340;SDS011;9296;48.084;16.352;2024-01-25T03:37:07;10.18;;;1.95;;
18340;SDS011;9296;48.084;16.352;2024-01-25T03:39:40;10.93;;;2.22;;
18340;SDS011;9296;48.084;16.352;2024-01-25T03:42:10;7.05;;;2.08;;
18340;SDS011;9296;48.084;16.352;2024-01-25T03:44:45;9.15;;;2.03;;
18340;SDS011;9296;48.084;16.352;2024-01-25T03:50:25;10.45;;;2.28;;
18340;SDS011;9296;48.084;16.352;2024-01-25T03:52:57;11.48;;;2.20;;
18340;SDS011;9296;48.084;16.352;2024-01-25T03:55:25;12.57;;;2.30;;
18340;SDS011;9296;48.084;16.352;2024-01-25T03:57:54;10.25;;;2.22;;
18340;SDS011;9296;48.084;16.352;2024-01-25T04:00:24;11.13;;;2.30;;
18340;SDS011;9296;48.084;16.352;2024-01-25T04:02:54;11.55;;;2.28;;
18340;SDS011;9296;48.084;16.352;2024-01-25T04:05:23;12.98;;;2.35;;
18340;SDS011;9296;48.084;16.352;2024-01-25T04:07:52;11.48;;;2.47;;
18340;SDS011;9296;48.084;16.352;2024-01-25T04:10:25;12.13;;;2.97;;
18340;SDS011;9296;48.084;16.352;2024-01-25T04:12:52;13.02;;;2.60;;
18340;SDS011;9296;48.084;16.352;2024-01-25T04:15:20;11.07;;;2.92;;
18340;SDS011;9296;48.084;16.352;2024-01-25T04:17:47;9.55;;;2.17;;
18340;SDS011;9296;48.084;16.352;2024-01-25T04:20:14;13.93;;;2.80;;
18340;SDS011;9296;48.084;16.352;2024-01-25T04:25:21;10.50;;;1.90;;
18340;SDS011;9296;48.084;16.352;2024-01-25T04:28:03;14.38;;;2.85;;
18340;SDS011;9296;48.084;16.352;2024-01-25T04:30:39;7.63;;;2.03;;
18340;SDS011;9296;48.084;16.352;2024-01-25T04:33:20;9.15;;;2.30;;
18340;SDS011;9296;48.084;16.352;2024-01-25T04:35:47;9.95;;;2.20;;
18340;SDS011;9296;48.084;16.352;2024-01-25T04:38:18;11.00;;;1.98;;
18340;SDS011;9296;48.084;16.352;2024-01-25T04:40:46;8.48;;;1.90;;
18340;SDS011;9296;48.084;16.352;2024-01-25T04:43:27;11.00;;;1.92;;
18340;SDS011;9296;48.084;16.352;2024-01-25T04:45:56;13.88;;;2.60;;
18340;SDS011;9296;48.084;16.352;2024-01-25T04:51:27;10.75;;;2.30;;
18340;SDS011;9296;48.084;16.352;2024-01-25T04:53:55;10.82;;;2.40;;
18340;SDS011;9296;48.084;16.352;2024-01-25T04:56:28;10.73;;;1.95;;
18340;SDS011;9296;48.084;16.352;2024-01-25T04:58:59;12.93;;;2.35;;
18340;SDS011;9296;48.084;16.352;2024-01-25T05:01:29;11.88;;;2.53;;
18340;SDS011;9296;48.084;16.352;2024-01-25T05:03:59;11.05;;;2.50;;
18340;SDS011;9296;48.084;16.352;2024-01-25T05:06:29;9.57;;;2.50;;
18340;SDS011;9296;48.084;16.352;2024-01-25T05:08:56;8.98;;;2.10;;
18340;SDS011;9296;48.084;16.352;2024-01-25T05:11:24;9.18;;;2.58;;
18340;SDS011;9296;48.084;16.352;2024-01-25T05:13:53;8.80;;;2.00;;
18340;SDS011;9296;48.084;16.352;2024-01-25T05:16:42;10.75;;;2.17;;
18340;SDS011;9296;48.084;16.352;2024-01-25T05:19:27;9.02;;;1.83;;
18340;SDS011;9296;48.084;16.352;2024-01-25T05:21:55;8.95;;;2.00;;
18340;SDS011;9296;48.084;16.352;2024-01-25T05:24:33;11.90;;;2.35;;
18340;SDS011;9296;48.084;16.352;2024-01-25T05:27:15;7.75;;;2.33;;
18340;SDS011;9296;48.084;16.352;2024-01-25T05:29:45;14.30;;;2.47;;
18340;SDS011;9296;48.084;16.352;2024-01-25T05:35:19;14.35;;;2.55;;
18340;SDS011;9296;48.084;16.352;2024-01-25T05:37:48;9.50;;;2.25;;
18340;SDS011;9296;48.084;16.352;2024-01-25T05:40:19;11.23;;;2.10;;
18340;SDS011;9296;48.084;16.352;2024-01-25T05:42:50;12.07;;;2.45;;
18340;SDS011;9296;48.084;16.352;2024-01-25T05:45:19;11.65;;;2.22;;
18340;SDS011;9296;48.084;16.352;2024-01-25T05:48:01;11.45;;;2.28;;
18340;SDS011;9296;48.084;16.352;2024-01-25T05:50:28;12.27;;;2.40;;
18340;SDS011;9296;48.084;16.352;2024-01-25T05:52:58;9.40;;;2.25;;
18340;SDS011;9296;48.084;16.352;2024-01-25T05:55:25;12.45;;;2.38;;
18340;SDS011;9296;48.084;16.352;2024-01-25T05:57:57;8.10;;;2.05;;
18340;SDS011;9296;48.084;16.352;2024-01-25T06:00:33;8.80;;;2.00;;
18340;SDS011;9296;48.084;16.352;2024-01-25T06:06:04;12.32;;;2.45;;
18340;SDS011;9296;48.084;16.352;2024-01-25T06:08:35;11.32;;;2.17;;
18340;SDS011;9296;48.084;16.352;2024-01-25T06:11:04;12.43;;;2.63;;
18340;SDS011;9296;48.084;16.352;2024-01-25T06:16:09;14.32;;;3.00;;
18340;SDS011;9296;48.084;16.352;2024-01-25T06:19:03;10.75;;;2.40;;
18340;SDS011;9296;48.084;16.352;2024-01-25T06:21:31;14.02;;;2.65;;
18340;SDS011;9296;48.084;16.352;2024-01-25T06:24:03;13.50;;;2.20;;
18340;SDS011;9296;48.084;16.352;2024-01-25T06:26:38;11.32;;;2.40;;
18340;SDS011;9296;48.084;16.352;2024-01-25T06:29:08;11.73;;;2.40;;
18340;SDS011;9296;48.084;16.352;2024-01-25T06:31:47;13.23;;;2.47;;
18340;SDS011;9296;48.084;16.352;2024-01-25T06:34:28;11.98;;;2.30;;
18340;SDS011;9296;48.084;16.352;2024-01-25T06:37:03;11.55;;;2.42;;
18340;SDS011;9296;48.084;16.352;2024-01-25T06:41:59;10.93;;;2.42;;
18340;SDS011;9296;48.084;16.352;2024-01-25T06:44:30;10.30;;;2.08;;
18340;SDS011;9296;48.084;16.352;2024-01-25T06:52:39;15.82;;;2.63;;
18340;SDS011;9296;48.084;16.352;2024-01-25T06:55:09;13.02;;;2.47;;
18340;SDS011;9296;48.084;16.352;2024-01-25T07:00:07;11.45;;;2.30;;
18340;SDS011;9296;48.084;16.352;2024-01-25T07:05:24;11.52;;;2.38;;
18340;SDS011;9296;48.084;16.352;2024-01-25T07:08:07;13.30;;;2.40;;
18340;SDS011;9296;48.084;16.352;2024-01-25T07:10:46;11.18;;;2.15;;
18340;SDS011;9296;48.084;16.352;2024-01-25T07:13:34;11.77;;;2.15;;
18340;SDS011;9296;48.084;16.352;2024-01-25T07:16:06;7.72;;;2.17;;
18340;SDS011;9296;48.084;16.352;2024-01-25T07:18:39;6.43;;;2.08;;
18340;SDS011;9296;48.084;16.352;2024-01-25T07:21:09;14.68;;;2.53;;
18340;SDS011;9296;48.084;16.352;2024-01-25T07:23:38;11.85;;;2.78;;
18340;SDS011;9296;48.084;16.352;2024-01-25T07:26:26;7.50;;;1.92;;
18340;SDS011;9296;48.084;16.352;2024-01-25T07:29:15;14.38;;;2.65;;
18340;SDS011;9296;48.084;16.352;2024-01-25T07:32:01;13.52;;;2.60;;
18340;SDS011;9296;48.084;16.352;2024-01-25T07:34:30;11.38;;;2.63;;
18340;SDS011;9296;48.084;16.352;2024-01-25T07:37:21;11.80;;;2.55;;
18340;SDS011;9296;48.084;16.352;2024-01-25T07:53:47;13.73;;;2.80;;
18340;SDS011;9296;48.084;16.352;2024-01-25T07:56:29;11.15;;;2.70;;
18340;SDS011;9296;48.084;16.352;2024-01-25T07:59:14;12.70;;;2.70;;
18340;SDS011;9296;48.084;16.352;2024-01-25T08:05:12;16.20;;;3.35;;
18340;SDS011;9296;48.084;16.352;2024-01-25T08:10:18;12.32;;;2.50;;
18340;SDS011;9296;48.084;16.352;2024-01-25T08:12:47;8.45;;;2.30;;
18340;SDS011;9296;48.084;16.352;2024-01-25T08:15:21;13.68;;;2.78;;
18340;SDS011;9296;48.084;16.352;2024-01-25T08:17:50;11.40;;;2.58;;
18340;SDS011;9296;48.084;16.352;2024-01-25T08:20:18;10.70;;;2.65;;
18340;SDS011;9296;48.084;16.352;2024-01-25T08:22:46;11.10;;;3.00;;
18340;SDS011;9296;48.084;16.352;2024-01-25T08:28:04;11.23;;;2.40;;
18340;SDS011;9296;48.084;16.352;2024-01-25T08:30:34;11.45;;;3.00;;
18340;SDS011;9296;48.084;16.352;2024-01-25T08:33:15;10.60;;;2.47;;
18340;SDS011;9296;48.084;16.352;2024-01-25T08:36:22;9.20;;;2.28;;
18340;SDS011;9296;48.084;16.352;2024-01-25T08:38:49;13.80;;;2.40;;
18340;SDS011;9296;48.084;16.352;2024-01-25T08:41:30;10.48;;;2.60;;
18340;SDS011;9296;48.084;16.352;2024-01-25T08:55:25;13.20;;;2.70;;
18340;SDS011;9296;48.084;16.352;2024-01-25T08:58:06;11.48;;;2.47;;
18340;SDS011;9296;48.084;16.352;2024-01-25T09:00:38;12.38;;;2.47;;
18340;SDS011;9296;48.084;16.352;2024-01-25T09:03:26;11.65;;;2.50;;
18340;SDS011;9296;48.084;16.352;2024-01-25T09:06:06;21.70;;;4.20;;
18340;SDS011;9296;48.084;16.352;2024-01-25T09:08:37;15.52;;;3.63;;
18340;SDS011;9296;48.084;16.352;2024-01-25T09:11:27;13.02;;;3.30;;
18340;SDS011;9296;48.084;16.352;2024-01-25T09:14:09;8.05;;;2.85;;
18340;SDS011;9296;48.084;16.352;2024-01-25T09:16:39;12.02;;;3.00;;
18340;SDS011;9296;48.084;16.352;2024-01-25T11:21:42;12.45;;;3.55;;
18340;SDS011;9296;48.084;16.352;2024-01-25T11:27:06;9.10;;;2.40;;
18340;SDS011;9296;48.084;16.352;2024-01-25T11:29:41;9.57;;;2.50;;
18340;SDS011;9296;48.084;16.352;2024-01-25T11:32:17;10.02;;;2.40;;
18340;SDS011;9296;48.084;16.352;2024-01-25T11:35:00;8.65;;;2.75;;
18340;SDS011;9296;48.084;16.352;2024-01-25T11:37:45;9.65;;;3.00;;
18340;SDS011;9296;48.084;16.352;2024-01-25T11:40:15;11.15;;;2.33;;
18340;SDS011;9296;48.084;16.352;2024-01-25T11:50:49;10.93;;;2.42;;
18340;SDS011;9296;48.084;16.352;2024-01-25T11:59:10;11.70;;;2.75;;
18340;SDS011;9296;48.084;16.352;2024-01-25T12:07:31;8.73;;;2.30;;
18340;SDS011;9296;48.084;16.352;2024-01-25T12:10:02;7.95;;;2.50;;
18340;SDS011;9296;48.084;16.352;2024-01-25T12:12:34;8.75;;;2.30;;
18340;SDS011;9296;48.084;16.352;2024-01-25T12:17:45;12.52;;;2.53;;
18340;SDS011;9296;48.084;16.352;2024-01-25T12:20:12;11.05;;;2.70;;
18340;SDS011;9296;48.084;16.352;2024-01-25T12:22:49;11.60;;;2.50;;
18340;SDS011;9296;48.084;16.352;2024-01-25T12:25:22;9.40;;;2.55;;
18340;SDS011;9296;48.084;16.352;2024-01-25T12:28:04;9.15;;;2.80;;
18340;SDS011;9296;48.084;16.352;2024-01-25T12:30:34;8.23;;;2.53;;
18340;SDS011;9296;48.084;16.352;2024-01-25T12:33:05;11.40;;;2.50;;
18340;SDS011;9296;48.084;16.352;2024-01-25T12:35:50;12.35;;;2.78;;
18340;SDS011;9296;48.084;16.352;2024-01-25T12:38:18;10.40;;;2.38;;
18340;SDS011;9296;48.084;16.352;2024-01-25T12:40:46;11.50;;;2.60;;
18340;SDS011;9296;48.084;16.352;2024-01-25T12:43:17;10.45;;;2.60;;
18340;SDS011;9296;48.084;16.352;2024-01-25T12:45:44;9.63;;;2.63;;
18340;SDS011;9296;48.084;16.352;2024-01-25T12:48:32;10.77;;;2.60;;
18340;SDS011;9296;48.084;16.352;2024-01-25T12:53:32;9.38;;;2.90;;
18340;SDS011;9296;48.084;16.352;2024-01-25T12:56:05;11.40;;;3.20;;
18340;SDS011;9296;48.084;16.352;2024-01-25T12:58:38;14.93;;;2.80;;
18340;SDS011;9296;48.084;16.352;2024-01-25T13:01:05;12.77;;;3.03;;
18340;SDS011;9296;48.084;16.352;2024-01-25T13:11:25;10.23;;;2.70;;
18340;SDS011;9296;48.084;16.352;2024-01-25T13:14:12;10.32;;;2.80;;
18340;SDS011;9296;48.084;16.352;2024-01-25T13:19:16;13.55;;;3.10;;
18340;SDS011;9296;48.084;16.352;2024-01-25T13:21:43;8.25;;;2.63;;
18340;SDS011;9296;48.084;16.352;2024-01-25T13:24:13;9.48;;;2.28;;
18340;SDS011;9296;48.084;16.352;2024-01-25T13:26:41;8.52;;;2.30;;
18340;SDS011;9296;48.084;16.352;2024-01-25T13:29:09;13.63;;;2.67;;
18340;SDS011;9296;48.084;16.352;2024-01-25T13:34:22;7.65;;;2.20;;
18340;SDS011;9296;48.084;16.352;2024-01-25T13:36:49;9.52;;;2.00;;
18340;SDS011;9296;48.084;16.352;2024-01-25T13:39:16;7.20;;;1.95;;
18340;SDS011;9296;48.084;16.352;2024-01-25T13:41:51;11.73;;;3.05;;
18340;SDS011;9296;48.084;16.352;2024-01-25T13:44:18;10.02;;;2.20;;
18340;SDS011;9296;48.084;16.352;2024-01-25T13:46:46;9.55;;;2.58;;
18340;SDS011;9296;48.084;16.352;2024-01-25T13:49:37;9.18;;;2.53;;
18340;SDS011;9296;48.084;16.352;2024-01-25T13:54:39;9.25;;;2.42;;
18340;SDS011;9296;48.084;16.352;2024-01-25T13:57:08;11.95;;;2.38;;
18340;SDS011;9296;48.084;16.352;2024-01-25T13:59:35;11.07;;;2.30;;
18340;SDS011;9296;48.084;16.352;2024-01-25T14:02:03;8.48;;;2.28;;
18340;SDS011;9296;48.084;16.352;2024-01-25T14:04:31;9.75;;;2.25;;
18340;SDS011;9296;48.084;16.352;2024-01-25T14:06:59;11.93;;;2.33;;
18340;SDS011;9296;48.084;16.352;2024-01-25T14:09:40;12.38;;;2.38;;
18340;SDS011;9296;48.084;16.352;2024-01-25T14:12:09;10.73;;;2.10;;
18340;SDS011;9296;48.084;16.352;2024-01-25T14:14:37;11.40;;;2.40;;
18340;SDS011;9296;48.084;16.352;2024-01-25T14:17:04;8.75;;;2.15;;
18340;SDS011;9296;48.084;16.352;2024-01-25T14:21:58;11.45;;;2.50;;
18340;SDS011;9296;48.084;16.352;2024-01-25T14:24:54;5.72;;;2.30;;
18340;SDS011;9296;48.084;16.352;2024-01-25T14:27:36;11.07;;;2.92;;
18340;SDS011;9296;48.084;16.352;2024-01-25T14:30:11;9.60;;;2.15;;
18340;SDS011;9296;48.084;16.352;2024-01-25T14:32:39;12.10;;;2.45;;
18340;SDS011;9296;48.084;16.352;2024-01-25T14:40:46;9.00;;;2.58;;
18340;SDS011;9296;48.084;16.352;2024-01-25T15:03:19;10.85;;;2.22;;
18340;SDS011;9296;48.084;16.352;2024-01-25T15:06:05;10.70;;;2.50;;
18340;SDS011;9296;48.084;16.352;2024-01-25T15:08:36;9.88;;;2.35;;
18340;SDS011;9296;48.084;16.352;2024-01-25T15:16:25;9.98;;;2.25;;
18340;SDS011;9296;48.084;16.352;2024-01-25T15:22:02;12.15;;;2.38;;
18340;SDS011;9296;48.084;16.352;2024-01-25T15:24:30;11.50;;;2.38;;
18340;SDS011;9296;48.084;16.352;2024-01-25T15:27:11;9.23;;;2.15;;
18340;SDS011;9296;48.084;16.352;2024-01-25T15:29:42;10.07;;;2.13;;
18340;SDS011;9296;48.084;16.352;2024-01-25T15:32:17;10.13;;;2.42;;
18340;SDS011;9296;48.084;16.352;2024-01-25T15:37:46;11.07;;;2.13;;
18340;SDS011;9296;48.084;16.352;2024-01-25T15:40:26;13.32;;;3.05;;
18340;SDS011;9296;48.084;16.352;2024-01-25T15:42:54;7.43;;;2.00;;
18340;SDS011;9296;48.084;16.352;2024-01-25T15:45:31;8.30;;;2.13;;
18340;SDS011;9296;48.084;16.352;2024-01-25T15:47:59;8.13;;;2.15;;
18340;SDS011;9296;48.084;16.352;2024-01-25T15:56:23;10.48;;;2.35;;
18340;SDS011;9296;48.084;16.352;2024-01-25T15:59:12;8.60;;;2.08;;
18340;SDS011;9296;48.084;16.352;2024-01-25T16:01:41;7.68;;;2.40;;
18340;SDS011;9296;48.084;16.352;2024-01-25T16:04:08;8.38;;;2.42;;
18340;SDS011;9296;48.084;16.352;2024-01-25T16:09:40;12.30;;;2.78;;
18340;SDS011;9296;48.084;16.352;2024-01-25T16:12:37;12.75;;;2.42;;
18340;SDS011;9296;48.084;16.352;2024-01-25T16:15:15;11.55;;;2.33;;
18340;SDS011;9296;48.084;16.352;2024-01-25T16:18:09;7.63;;;2.08;;
18340;SDS011;9296;48.084;16.352;2024-01-25T16:23:26;12.40;;;2.40;;
18340;SDS011;9296;48.084;16.352;2024-01-25T16:25:56;12.00;;;2.85;;
18340;SDS011;9296;48.084;16.352;2024-01-25T16:28:26;9.10;;;2.50;;
18340;SDS011;9296;48.084;16.352;2024-01-25T16:30:55;9.57;;;2.63;;
18340;SDS011;9296;48.084;16.352;2024-01-25T16:33:22;7.32;;;2.10;;
18340;SDS011;9296;48.084;16.352;2024-01-25T16:38:23;8.60;;;2.40;;
18340;SDS011;9296;48.084;16.352;2024-01-25T16:43:31;12.52;;;2.47;;
18340;SDS011;9296;48.084;16.352;2024-01-25T16:45:58;10.07;;;2.15;;
18340;SDS011;9296;48.084;16.352;2024-01-25T16:48:28;8.23;;;2.60;;
18340;SDS011;9296;48.084;16.352;2024-01-25T16:54:13;10.88;;;2.35;;
18340;SDS011;9296;48.084;16.352;2024-01-25T16:56:58;12.30;;;2.40;;
18340;SDS011;9296;48.084;16.352;2024-01-25T16:59:30;10.68;;;2.30;;
18340;SDS011;9296;48.084;16.352;2024-01-25T17:02:02;11.52;;;2.42;;
18340;SDS011;9296;48.084;16.352;2024-01-25T17:04:29;9.45;;;2.17;;
18340;SDS011;9296;48.084;16.352;2024-01-25T17:10:15;12.07;;;2.35;;
18340;SDS011;9296;48.084;16.352;2024-01-25T17:12:44;10.63;;;2.70;;
18340;SDS011;9296;48.084;16.352;2024-01-25T17:15:21;11.20;;;2.72;;
18340;SDS011;9296;48.084;16.352;2024-01-25T17:17:51;13.57;;;2.90;;
18340;SDS011;9296;48.084;16.352;2024-01-25T17:20:18;13.48;;;2.85;;
18340;SDS011;9296;48.084;16.352;2024-01-25T17:22:46;13.77;;;2.67;;
18340;SDS011;9296;48.084;16.352;2024-01-25T17:25:14;11.45;;;2.40;;
18340;SDS011;9296;48.084;16.352;2024-01-25T17:27:43;9.95;;;2.78;;
18340;SDS011;9296;48.084;16.352;2024-01-25T17:30:15;10.77;;;2.20;;
18340;SDS011;9296;48.084;16.352;2024-01-25T17:32:44;11.25;;;2.63;;
18340;SDS011;9296;48.084;16.352;2024-01-25T17:38:18;9.63;;;2.30;;
18340;SDS011;9296;48.084;16.352;2024-01-25T17:40:45;6.53;;;2.58;;
18340;SDS011;9296;48.084;16.352;2024-01-25T17:43:14;9.48;;;2.22;;
18340;SDS011;9296;48.084;16.352;2024-01-25T17:45:43;9.70;;;2.63;;
18340;SDS011;9296;48.084;16.352;2024-01-25T17:48:13;8.73;;;2.50;;
18340;SDS011;9296;48.084;16.352;2024-01-25T17:50:57;13.02;;;2.70;;
18340;SDS011;9296;48.084;16.352;2024-01-25T17:53:24;13.00;;;2.63;;
18340;SDS011;9296;48.084;16.352;2024-01-25T17:55:52;10.18;;;2.35;;
18340;SDS011;9296;48.084;16.352;2024-01-25T17:58:19;11.68;;;2.28;;
18340;SDS011;9296;48.084;16.352;2024-01-25T18:00:48;7.75;;;2.15;;
18340;SDS011;9296;48.084;16.352;2024-01-25T18:03:16;13.15;;;2.40;;
18340;SDS011;9296;48.084;16.352;2024-01-25T18:05:44;8.93;;;3.08;;
18340;SDS011;9296;48.084;16.352;2024-01-25T18:08:11;9.43;;;2.35;;
18340;SDS011;9296;48.084;16.352;2024-01-25T18:10:39;9.35;;;2.45;;
18340;SDS011;9296;48.084;16.352;2024-01-25T18:13:07;10.98;;;2.35;;
18340;SDS011;9296;48.084;16.352;2024-01-25T18:15:34;9.93;;;2.42;;
18340;SDS011;9296;48.084;16.352;2024-01-25T18:18:03;8.85;;;2.58;;
18340;SDS011;9296;48.084;16.352;2024-01-25T18:20:31;8.35;;;2.22;;
18340;SDS011;9296;48.084;16.352;2024-01-25T18:22:58;10.65;;;2.47;;
18340;SDS011;9296;48.084;16.352;2024-01-25T18:25:25;11.63;;;2.53;;
18340;SDS011;9296;48.084;16.352;2024-01-25T18:27:53;11.55;;;2.50;;
18340;SDS011;9296;48.084;16.352;2024-01-25T18:30:21;14.77;;;2.50;;
18340;SDS011;9296;48.084;16.352;2024-01-25T18:32:48;10.60;;;2.33;;
18340;SDS011;9296;48.084;16.352;2024-01-25T18:37:59;9.52;;;2.47;;
18340;SDS011;9296;48.084;16.352;2024-01-25T18:40:26;11.90;;;2.90;;
18340;SDS011;9296;48.084;16.352;2024-01-25T18:42:54;14.10;;;2.47;;
18340;SDS011;9296;48.084;16.352;2024-01-25T18:45:21;10.30;;;2.50;;
18340;SDS011;9296;48.084;16.352;2024-01-25T18:47:50;13.73;;;3.42;;
18340;SDS011;9296;48.084;16.352;2024-01-25T18:53:23;15.77;;;2.85;;
18340;SDS011;9296;48.084;16.352;2024-01-25T18:55:50;11.38;;;2.60;;
18340;SDS011;9296;48.084;16.352;2024-01-25T18:58:19;12.60;;;2.85;;
18340;SDS011;9296;48.084;16.352;2024-01-25T19:03:19;9.48;;;2.85;;
18340;SDS011;9296;48.084;16.352;2024-01-25T19:11:55;9.45;;;2.65;;
18340;SDS011;9296;48.084;16.352;2024-01-25T19:17:12;11.75;;;2.63;;
18340;SDS011;9296;48.084;16.352;2024-01-25T19:19:39;11.18;;;2.58;;
18340;SDS011;9296;48.084;16.352;2024-01-25T19:25:21;17.20;;;3.47;;
18340;SDS011;9296;48.084;16.352;2024-01-25T19:27:50;16.15;;;3.30;;
18340;SDS011;9296;48.084;16.352;2024-01-25T19:30:17;14.55;;;3.67;;
18340;SDS011;9296;48.084;16.352;2024-01-25T19:32:48;10.95;;;3.15;;
18340;SDS011;9296;48.084;16.352;2024-01-25T19:35:16;13.90;;;3.35;;
18340;SDS011;9296;48.084;16.352;2024-01-25T19:40:47;8.60;;;2.70;;
18340;SDS011;9296;48.084;16.352;2024-01-25T19:43:16;12.10;;;2.60;;
18340;SDS011;9296;48.084;16.352;2024-01-25T19:45:43;16.65;;;3.00;;
18340;SDS011;9296;48.084;16.352;2024-01-25T19:48:10;13.93;;;2.60;;
18340;SDS011;9296;48.084;16.352;2024-01-25T19:53:36;9.68;;;3.00;;
18340;SDS011;9296;48.084;16.352;2024-01-25T19:56:03;11.25;;;3.08;;
18340;SDS011;9296;48.084;16.352;2024-01-25T19:58:48;12.05;;;3.42;;
18340;SDS011;9296;48.084;16.352;2024-01-25T20:01:18;12.55;;;3.63;;
18340;SDS011;9296;48.084;16.352;2024-01-25T20:03:46;12.43;;;2.63;;
18340;SDS011;9296;48.084;16.352;2024-01-25T20:12:25;14.18;;;3.17;;
18340;SDS011;9296;48.084;16.352;2024-01-25T20:14:53;12.98;;;2.95;;
18340;SDS011;9296;48.084;16.352;2024-01-25T20:17:22;12.63;;;3.17;;
18340;SDS011;9296;48.084;16.352;2024-01-25T20:19:51;16.25;;;2.85;;
18340;SDS011;9296;48.084;16.352;2024-01-25T20:25:22;13.32;;;2.45;;
18340;SDS011;9296;48.084;16.352;2024-01-25T20:27:53;14.13;;;3.50;;
18340;SDS011;9296;48.084;16.352;2024-01-25T20:30:23;13.40;;;2.95;;
18340;SDS011;9296;48.084;16.352;2024-01-25T20:32:56;11.52;;;2.70;;
18340;SDS011;9296;48.084;16.352;2024-01-25T20:35:23;13.98;;;3.00;;
18340;SDS011;9296;48.084;16.352;2024-01-25T20:38:08;9.73;;;2.83;;
18340;SDS011;9296;48.084;16.352;2024-01-25T20:40:36;9.85;;;2.85;;
18340;SDS011;9296;48.084;16.352;2024-01-25T20:43:03;10.85;;;2.50;;
18340;SDS011;9296;48.084;16.352;2024-01-25T20:48:01;12.70;;;3.30;;
18340;SDS011;9296;48.084;16.352;2024-01-25T20:50:28;12.70;;;2.78;;
18340;SDS011;9296;48.084;16.352;2024-01-25T20:52:55;11.60;;;2.53;;
18340;SDS011;9296;48.084;16.352;2024-01-25T20:55:22;11.02;;;3.15;;
18340;SDS011;9296;48.084;16.352;2024-01-25T20:57:51;12.23;;;2.95;;
18340;SDS011;9296;48.084;16.352;2024-01-25T21:00:19;12.43;;;3.53;;
18340;SDS011;9296;48.084;16.352;2024-01-25T21:02:46;13.73;;;3.70;;
18340;SDS011;9296;48.084;16.352;2024-01-25T21:05:16;14.68;;;4.95;;
18340;SDS011;9296;48.084;16.352;2024-01-25T21:07:44;12.05;;;3.60;;
18340;SDS011;9296;48.084;16.352;2024-01-25T21:10:12;12.13;;;3.45;;
18340;SDS011;9296;48.084;16.352;2024-01-25T21:12:42;9.73;;;2.83;;
18340;SDS011;9296;48.084;16.352;2024-01-25T21:15:09;13.75;;;3.17;;
18340;SDS011;9296;48.084;16.352;2024-01-25T21:17:37;13.48;;;3.20;;
18340;SDS011;9296;48.084;16.352;2024-01-25T21:20:04;10.30;;;3.15;;
18340;SDS011;9296;48.084;16.352;2024-01-25T21:22:35;15.15;;;3.45;;
18340;SDS011;9296;48.084;16.352;2024-01-25T21:25:02;10.27;;;2.60;;
18340;SDS011;9296;48.084;16.352;2024-01-25T21:27:30;12.65;;;3.03;;
18340;SDS011;9296;48.084;16.352;2024-01-25T21:29:57;11.05;;;2.95;;
18340;SDS011;9296;48.084;16.352;2024-01-25T21:32:28;9.75;;;2.58;;
18340;SDS011;9296;48.084;16.352;2024-01-25T21:34:55;13.40;;;3.33;;
18340;SDS011;9296;48.084;16.352;2024-01-25T21:37:22;13.23;;;3.00;;
18340;SDS011;9296;48.084;16.352;2024-01-25T21:40:13;18.77;;;3.42;;
18340;SDS011;9296;48.084;16.352;2024-01-25T21:42:40;9.45;;;2.72;;
18340;SDS011;9296;48.084;16.352;2024-01-25T21:45:07;11.48;;;2.90;;
18340;SDS011;9296;48.084;16.352;2024-01-25T21:47:35;14.15;;;3.38;;
18340;SDS011;9296;48.084;16.352;2024-01-25T21:50:02;12.65;;;3.13;;
18340;SDS011;9296;48.084;16.352;2024-01-25T21:55:53;12.23;;;3.20;;
18340;SDS011;9296;48.084;16.352;2024-01-25T21:58:20;10.93;;;3.38;;
18340;SDS011;9296;48.084;16.352;2024-01-25T22:00:48;15.57;;;3.45;;
18340;SDS011;9296;48.084;16.352;2024-01-25T22:03:20;12.18;;;3.58;;
18340;SDS011;9296;48.084;16.352;2024-01-25T22:05:48;13.60;;;3.25;;
18340;SDS011;9296;48.084;16.352;2024-01-25T22:08:15;16.52;;;3.30;;
18340;SDS011;9296;48.084;16.352;2024-01-25T22:10:50;10.68;;;2.97;;
18340;SDS011;9296;48.084;16.352;2024-01-25T22:13:19;12.68;;;3.08;;
18340;SDS011;9296;48.084;16.352;2024-01-25T22:15:46;12.30;;;3.10;;
18340;SDS011;9296;48.084;16.352;2024-01-25T22:18:16;15.18;;;2.90;;
18340;SDS011;9296;48.084;16.352;2024-01-25T22:20:43;14.07;;;3.53;;
18340;SDS011;9296;48.084;16.352;2024-01-25T22:23:11;15.50;;;3.33;;
18340;SDS011;9296;48.084;16.352;2024-01-25T22:25:38;12.68;;;3.08;;
18340;SDS011;9296;48.084;16.352;2024-01-25T22:28:05;19.35;;;3.65;;
18340;SDS011;9296;48.084;16.352;2024-01-25T22:32:59;9.23;;;2.85;;
18340;SDS011;9296;48.084;16.352;2024-01-25T22:35:27;12.38;;;2.75;;
18340;SDS011;9296;48.084;16.352;2024-01-25T22:37:54;20.25;;;3.30;;
18340;SDS011;9296;48.084;16.352;2024-01-25T22:40:21;11.45;;;3.42;;
18340;SDS011;9296;48.084;16.352;2024-01-25T22:42:48;13.77;;;3.22;;
18340;SDS011;9296;48.084;16.352;2024-01-25T22:45:15;13.73;;;3.45;;